createdAt,value
2023-01-12T00:02:36.833Z,14.02
2023-01-12T00:07:39.008Z,8.30
2023-01-12T00:12:41.143Z,7.18
2023-01-12T00:17:43.195Z,7.22
2023-01-12T00:22:49.953Z,16.77
2023-01-12T00:27:52.023Z,10.15
2023-01-12T00:38:19.730Z,8.13
2023-01-12T00:43:40.158Z,8.65
2023-01-12T00:48:42.366Z,10.73
2023-01-12T00:53:44.428Z,9.98
2023-01-12T00:58:47.467Z,11.40
2023-01-12T01:03:49.625Z,12.27
2023-01-12T01:08:52.032Z,9.65
2023-01-12T01:13:54.941Z,9.05
2023-01-12T01:18:58.565Z,10.05
2023-01-12T01:24:01.064Z,8.05
2023-01-12T01:29:03.229Z,5.70
2023-01-12T01:34:05.358Z,6.75
2023-01-12T01:39:07.517Z,8.00
2023-01-12T01:44:31.279Z,6.90
2023-01-12T01:49:51.923Z,8.77
2023-01-12T01:54:59.799Z,7.10
2023-01-12T02:00:06.327Z,5.65
2023-01-12T02:05:09.601Z,10.43
2023-01-12T02:10:11.913Z,10.13
2023-01-12T02:15:52.471Z,10.15
2023-01-12T02:21:21.146Z,8.50
2023-01-12T02:26:44.701Z,11.55
2023-01-12T02:32:29.243Z,9.60
2023-01-12T02:38:02.219Z,8.95
2023-01-12T02:43:40.520Z,8.57
2023-01-12T02:49:07.897Z,7.30
2023-01-12T02:54:17.436Z,6.97
2023-01-12T02:59:25.092Z,5.57
2023-01-12T03:04:28.558Z,11.50
2023-01-12T03:09:44.359Z,5.05
2023-01-12T03:14:49.446Z,13.00
2023-01-12T03:19:55.123Z,6.22
2023-01-12T03:25:02.603Z,6.53
2023-01-12T03:30:11.340Z,9.07
2023-01-12T03:35:14.219Z,8.02
2023-01-12T03:40:23.606Z,5.40
2023-01-12T03:45:45.920Z,5.07
2023-01-12T03:50:53.698Z,5.82
2023-01-12T03:56:00.031Z,6.38
2023-01-12T04:01:03.703Z,6.97
2023-01-12T04:06:06.184Z,12.25
2023-01-12T04:11:27.530Z,8.23
2023-01-12T04:16:29.802Z,7.07
2023-01-12T04:21:50.297Z,9.32
2023-01-12T04:26:52.619Z,6.95
2023-01-12T04:31:54.841Z,8.10
2023-01-12T04:36:57.096Z,10.60
2023-01-12T04:41:59.214Z,21.88
2023-01-12T04:47:01.272Z,11.45
2023-01-12T04:52:03.463Z,18.52
2023-01-12T04:57:05.519Z,11.88
2023-01-12T05:02:07.699Z,21.33
2023-01-12T05:07:09.797Z,20.13
2023-01-12T05:12:12.024Z,28.83
2023-01-12T05:17:14.067Z,14.90
2023-01-12T05:22:16.603Z,24.10
2023-01-12T05:27:19.000Z,21.50
2023-01-12T05:32:21.119Z,18.02
2023-01-12T05:37:23.200Z,14.52
2023-01-12T05:42:43.596Z,17.60
2023-01-12T05:47:45.863Z,16.88
2023-01-12T05:52:52.137Z,15.02
2023-01-12T05:57:54.319Z,26.23
2023-01-12T06:02:56.653Z,23.52
2023-01-12T06:07:59.654Z,26.42
2023-01-12T06:13:20.221Z,18.65
2023-01-12T06:18:23.259Z,25.75
2023-01-12T06:23:35.334Z,36.45
2023-01-12T06:28:39.654Z,19.80
2023-01-12T06:33:42.363Z,64.13
2023-01-12T06:38:44.510Z,63.75
2023-01-12T06:43:46.961Z,48.30
2023-01-12T06:48:49.125Z,49.60
2023-01-12T06:53:51.473Z,30.10
2023-01-12T06:58:53.582Z,23.95
2023-01-12T07:03:55.760Z,21.85
2023-01-12T07:08:57.887Z,23.13
2023-01-12T07:14:00.145Z,26.52
2023-01-12T07:19:02.393Z,31.52
2023-01-12T07:24:04.564Z,40.28
2023-01-12T07:29:06.770Z,28.45
2023-01-12T07:34:08.934Z,36.40
2023-01-12T07:39:13.256Z,24.63
2023-01-12T07:44:15.343Z,21.92
2023-01-12T07:49:17.507Z,18.92
2023-01-12T07:54:19.649Z,16.95
2023-01-12T07:59:21.714Z,26.13
2023-01-12T08:04:23.869Z,17.17
2023-01-12T08:09:26.630Z,10.90
2023-01-12T08:14:33.983Z,11.35
2023-01-12T08:19:45.800Z,13.70
2023-01-12T08:24:56.998Z,12.07
2023-01-12T08:30:00.435Z,14.30
2023-01-12T08:35:04.475Z,17.20
2023-01-12T08:40:07.867Z,10.35
2023-01-12T08:45:10.498Z,15.70
2023-01-12T08:50:12.837Z,12.98
2023-01-12T08:55:14.952Z,15.57
2023-01-12T09:00:17.865Z,16.30
2023-01-12T09:05:20.073Z,17.92
2023-01-12T09:10:22.159Z,16.63
2023-01-12T09:15:24.324Z,14.23
2023-01-12T09:20:26.525Z,11.18
2023-01-12T09:25:28.601Z,12.60
2023-01-12T09:30:30.737Z,19.55
2023-01-12T09:35:32.821Z,10.40
2023-01-12T09:40:35.930Z,12.25
2023-01-12T12:40:10.731Z,7.35
2023-01-12T12:45:21.787Z,6.05
2023-01-12T12:50:44.469Z,7.25
2023-01-12T12:55:49.216Z,9.43
2023-01-12T13:00:53.368Z,6.47
2023-01-12T13:06:16.667Z,8.70
2023-01-12T13:11:20.376Z,5.03
2023-01-12T13:16:22.493Z,8.40
2023-01-12T13:21:27.696Z,10.57
2023-01-12T13:26:35.724Z,7.45
2023-01-12T13:31:37.918Z,8.02
2023-01-12T13:36:40.139Z,9.15
2023-01-12T13:42:02.102Z,7.50
2023-01-12T13:47:16.917Z,10.60
2023-01-12T13:52:34.409Z,9.23
2023-01-12T13:57:36.621Z,14.77
2023-01-12T14:02:40.765Z,6.65
2023-01-12T14:07:58.931Z,7.63
2023-01-12T14:13:10.720Z,8.05
2023-01-12T14:18:28.218Z,9.90
2023-01-12T14:23:33.845Z,10.60
2023-01-12T14:28:37.153Z,8.68
2023-01-12T14:33:41.254Z,15.00
2023-01-12T14:38:44.752Z,11.48
2023-01-12T14:44:05.488Z,15.13
2023-01-12T14:49:31.161Z,11.80
2023-01-12T14:54:34.662Z,16.13
2023-01-12T14:59:44.005Z,14.18
2023-01-12T15:04:59.743Z,23.33
2023-01-12T15:10:24.627Z,24.10
2023-01-12T15:15:49.513Z,11.48
2023-01-12T15:21:10.062Z,17.58
2023-01-12T15:31:25.586Z,17.55
2023-01-12T15:36:28.080Z,25.15
2023-01-12T15:41:50.593Z,31.10
2023-01-12T15:46:53.506Z,27.50
2023-01-12T15:51:55.798Z,40.17
2023-01-12T15:56:59.936Z,42.47
2023-01-12T16:02:02.372Z,48.03
2023-01-12T16:07:05.612Z,66.20
2023-01-12T16:12:08.267Z,56.00
2023-01-12T16:17:10.616Z,50.33
2023-01-12T16:22:21.431Z,58.13
2023-01-12T16:27:26.745Z,54.78
2023-01-12T16:32:29.053Z,95.70
2023-01-12T16:37:33.694Z,50.65
2023-01-12T16:42:36.037Z,50.25
2023-01-12T16:47:38.800Z,40.47
2023-01-12T16:52:41.141Z,31.25
2023-01-12T16:57:43.515Z,35.22
2023-01-12T17:02:45.895Z,35.17
2023-01-12T17:07:49.268Z,39.88
2023-01-12T17:12:58.340Z,46.28
2023-01-12T17:18:03.461Z,46.08
2023-01-12T17:23:06.051Z,43.35
2023-01-12T17:28:08.656Z,44.17
2023-01-12T17:33:10.994Z,58.95
2023-01-12T17:38:13.290Z,67.38
2023-01-12T17:43:15.485Z,62.92
2023-01-12T17:48:20.646Z,63.80
2023-01-12T17:53:22.992Z,63.22
2023-01-12T17:58:25.119Z,51.58
2023-01-12T18:03:27.310Z,57.08
2023-01-12T18:08:29.593Z,70.40
2023-01-12T18:13:32.235Z,32.70
2023-01-12T18:18:34.608Z,42.58
2023-01-12T18:23:39.149Z,44.28
2023-01-12T18:28:42.366Z,29.85
2023-01-12T18:33:45.827Z,30.13
2023-01-12T18:38:49.896Z,35.67
2023-01-12T18:43:52.504Z,37.70
2023-01-12T18:48:54.756Z,32.53
2023-01-12T18:53:57.244Z,36.22
2023-01-12T18:58:59.362Z,28.75
2023-01-12T19:04:03.044Z,32.90
2023-01-12T19:09:23.837Z,29.25
2023-01-12T19:14:44.434Z,31.35
2023-01-12T19:25:07.396Z,31.60
2023-01-12T19:30:10.650Z,35.90
2023-01-12T19:35:12.933Z,44.65
2023-01-12T19:40:47.721Z,31.63
2023-01-12T19:45:58.881Z,42.28
2023-01-12T19:51:09.495Z,36.22
2023-01-12T19:56:13.522Z,35.08
2023-01-12T20:01:23.460Z,31.85
2023-01-12T20:06:25.684Z,28.38
2023-01-12T20:11:28.048Z,24.95
2023-01-12T20:16:30.364Z,20.67
2023-01-12T20:21:32.511Z,20.35
2023-01-12T20:26:34.599Z,19.08
2023-01-12T20:31:36.807Z,39.67
2023-01-12T20:36:40.190Z,29.67
2023-01-12T20:41:43.545Z,22.65
2023-01-12T20:46:46.202Z,18.00
2023-01-12T20:51:49.853Z,41.08
2023-01-12T20:56:52.053Z,24.45
2023-01-12T21:01:54.192Z,20.05
2023-01-12T21:06:57.135Z,20.83
2023-01-12T21:11:59.416Z,15.35
2023-01-12T21:17:02.794Z,16.23
2023-01-12T21:22:04.911Z,27.98
2023-01-12T21:27:07.526Z,18.73
2023-01-12T21:32:09.697Z,21.02
2023-01-12T21:37:12.209Z,20.90
2023-01-12T21:42:33.509Z,20.10
2023-01-12T21:47:35.961Z,23.40
2023-01-12T21:52:38.192Z,37.60
2023-01-12T21:57:42.086Z,28.67
2023-01-12T22:02:44.322Z,28.10
2023-01-12T22:07:48.216Z,23.70
2023-01-12T22:12:54.366Z,22.08
2023-01-12T22:17:56.737Z,18.23
2023-01-12T22:22:58.897Z,19.83
2023-01-12T22:28:01.155Z,17.70
2023-01-12T22:33:03.291Z,16.92
2023-01-12T22:38:06.465Z,20.42
2023-01-12T22:43:28.528Z,22.23
2023-01-12T22:48:30.606Z,49.80
2023-01-12T22:53:33.163Z,30.90
2023-01-12T22:58:38.206Z,27.75
2023-01-12T23:03:40.348Z,26.67
2023-01-12T23:08:44.919Z,23.80
2023-01-12T23:13:47.342Z,21.08
2023-01-12T23:18:50.629Z,24.33
2023-01-12T23:23:54.791Z,23.10
2023-01-12T23:29:00.587Z,18.83
2023-01-12T23:34:02.910Z,17.92
2023-01-12T23:39:06.441Z,18.45
2023-01-12T23:44:10.232Z,18.52
2023-01-12T23:49:12.301Z,20.52
2023-01-12T23:54:17.613Z,27.80
2023-01-12T23:59:19.946Z,25.00
